EXS7A EGJJ-EGNM
Flight info
| Callsign | EXS7A |
|---|---|
| Flight time | 1h 11m |
| Altitude | 35000 |
| Route | BENIX3B BENIX G27 AKIKI UN867 AVANT UM184 HEMEL T420 TNT N57 DENBY DCT |
| Aircraft | B738/M-SDE2E3FGHIRWY/LB1 |
Departure
| Time | 2026-01-18 12:34 |
|---|---|
| Airport | Jersey Airport (EGJJ) |
Arrival
| Time | 2026-01-18 13:46 |
|---|---|
| Airport | Leeds Bradford Airport (EGNM) |
| Time | Latitude | Longitude | Altitude | Speed | Heading |
|---|---|---|---|---|---|
| 2026-01-18 12:16 | 49.20489 | -2.19850 | 285 ft | 0 kts | 353° |
| 2026-01-18 12:25 | 49.20478 | -2.19848 | 283 ft | 3 kts | 351° |
| 2026-01-18 12:25 | 49.20442 | -2.19827 | 288 ft | 3 kts | 307° |
| 2026-01-18 12:26 | 49.20436 | -2.19805 | 291 ft | 0 kts | 264° |
| 2026-01-18 12:29 | 49.20493 | -2.19930 | 283 ft | 10 kts | 338° |
| 2026-01-18 12:29 | 49.20544 | -2.20118 | 283 ft | 10 kts | 286° |
| 2026-01-18 12:30 | 49.20584 | -2.20326 | 283 ft | 10 kts | 286° |
| 2026-01-18 12:30 | 49.20622 | -2.20524 | 286 ft | 9 kts | 282° |
| 2026-01-18 12:31 | 49.20655 | -2.20701 | 283 ft | 9 kts | 336° |
| 2026-01-18 12:31 | 49.20706 | -2.20647 | 282 ft | 0 kts | 82° |
| 2026-01-18 12:33 | 49.20825 | -2.19191 | 303 ft | 157 kts | 83° |
| 2026-01-18 12:34 | 49.21312 | -2.13395 | 2970 ft | 213 kts | 86° |
| 2026-01-18 12:34 | 49.21733 | -2.08558 | 4089 ft | 241 kts | 86° |
| 2026-01-18 12:35 | 49.22721 | -2.03517 | 4968 ft | 267 kts | 58° |
| 2026-01-18 12:35 | 49.25171 | -1.99291 | 5034 ft | 275 kts | 51° |
| 2026-01-18 12:36 | 49.29096 | -1.92793 | 7737 ft | 282 kts | 52° |
| 2026-01-18 12:36 | 49.30430 | -1.90534 | 8633 ft | 289 kts | 52° |
| 2026-01-18 12:37 | 49.33176 | -1.85872 | 10415 ft | 302 kts | 52° |
| 2026-01-18 12:37 | 49.36185 | -1.80736 | 11460 ft | 337 kts | 51° |
| 2026-01-18 12:37 | 49.37762 | -1.78048 | 12346 ft | 340 kts | 51° |
| 2026-01-18 12:38 | 49.42622 | -1.69753 | 14874 ft | 355 kts | 52° |
| 2026-01-18 12:39 | 49.45965 | -1.64025 | 16396 ft | 365 kts | 51° |
| 2026-01-18 12:39 | 49.47646 | -1.61140 | 17147 ft | 370 kts | 51° |
| 2026-01-18 12:39 | 49.51129 | -1.55155 | 18636 ft | 380 kts | 51° |
| 2026-01-18 12:40 | 49.56526 | -1.45926 | 20658 ft | 393 kts | 49° |
| 2026-01-18 12:41 | 49.61271 | -1.41556 | 21942 ft | 410 kts | 14° |
| 2026-01-18 12:41 | 49.67009 | -1.40785 | 23240 ft | 419 kts | 2° |
| 2026-01-18 12:42 | 49.72894 | -1.40396 | 24336 ft | 426 kts | 2° |
| 2026-01-18 12:43 | 49.84847 | -1.39382 | 26556 ft | 434 kts | 2° |
| 2026-01-18 12:45 | 50.06242 | -1.36693 | 29963 ft | 451 kts | 8° |
| 2026-01-18 12:47 | 50.33801 | -1.29630 | 34227 ft | 444 kts | 9° |
| 2026-01-18 12:49 | 50.57027 | -1.19002 | 35069 ft | 437 kts | 34° |
| 2026-01-18 12:51 | 50.75062 | -1.00785 | 35066 ft | 443 kts | 33° |
| 2026-01-18 12:53 | 50.99173 | -0.84912 | 35074 ft | 443 kts | 18° |
| 2026-01-18 12:54 | 51.17892 | -0.75183 | 35078 ft | 443 kts | 18° |
| 2026-01-18 12:57 | 51.44187 | -0.61345 | 35100 ft | 442 kts | 18° |
| 2026-01-18 12:59 | 51.67562 | -0.48901 | 34823 ft | 443 kts | 18° |
| 2026-01-18 13:01 | 51.89418 | -0.50451 | 31646 ft | 402 kts | 323° |
| 2026-01-18 13:03 | 52.07932 | -0.68613 | 28869 ft | 377 kts | 323° |
| 2026-01-18 13:05 | 52.25474 | -0.85963 | 25959 ft | 361 kts | 322° |
| 2026-01-18 13:06 | 52.34011 | -0.94430 | 24589 ft | 357 kts | 322° |
| 2026-01-18 13:06 | 52.36124 | -0.96532 | 24259 ft | 355 kts | 322° |
| 2026-01-18 13:06 | 52.40341 | -1.00736 | 23567 ft | 355 kts | 321° |
| 2026-01-18 13:07 | 52.44549 | -1.04941 | 22786 ft | 353 kts | 321° |
| 2026-01-18 13:07 | 52.48710 | -1.09104 | 22090 ft | 349 kts | 321° |
| 2026-01-18 13:08 | 52.54900 | -1.15379 | 20967 ft | 347 kts | 322° |
| 2026-01-18 13:09 | 52.59000 | -1.19535 | 20273 ft | 345 kts | 322° |
| 2026-01-18 13:09 | 52.63083 | -1.23668 | 19593 ft | 344 kts | 322° |
| 2026-01-18 13:09 | 52.65115 | -1.25730 | 19263 ft | 343 kts | 322° |
| 2026-01-18 13:10 | 52.69137 | -1.29817 | 18604 ft | 341 kts | 322° |
| 2026-01-18 13:10 | 52.73176 | -1.33925 | 17922 ft | 340 kts | 323° |
| 2026-01-18 13:11 | 52.77178 | -1.37998 | 17245 ft | 337 kts | 323° |
| 2026-01-18 13:11 | 52.81142 | -1.42042 | 16581 ft | 333 kts | 323° |
| 2026-01-18 13:12 | 52.86995 | -1.48031 | 15643 ft | 327 kts | 323° |
| 2026-01-18 13:13 | 52.90843 | -1.51981 | 15048 ft | 324 kts | 323° |
| 2026-01-18 13:13 | 52.94669 | -1.55917 | 14388 ft | 323 kts | 323° |
| 2026-01-18 13:13 | 52.96573 | -1.57879 | 14078 ft | 322 kts | 323° |
| 2026-01-18 13:14 | 53.00321 | -1.61744 | 13418 ft | 321 kts | 324° |
| 2026-01-18 13:14 | 53.04097 | -1.65647 | 12744 ft | 318 kts | 324° |
| 2026-01-18 13:15 | 53.08045 | -1.68839 | 12236 ft | 314 kts | 338° |
| 2026-01-18 13:15 | 53.12161 | -1.71218 | 11626 ft | 312 kts | 337° |
| 2026-01-18 13:16 | 53.18402 | -1.73394 | 10724 ft | 311 kts | 12° |
| 2026-01-18 13:17 | 53.22576 | -1.71671 | 10185 ft | 306 kts | 15° |
| 2026-01-18 13:17 | 53.24609 | -1.70769 | 9970 ft | 302 kts | 15° |
| 2026-01-18 13:17 | 53.28664 | -1.68991 | 9355 ft | 300 kts | 15° |
| 2026-01-18 13:18 | 53.32676 | -1.67262 | 8767 ft | 296 kts | 15° |
| 2026-01-18 13:18 | 53.36648 | -1.65564 | 8199 ft | 293 kts | 15° |
| 2026-01-18 13:19 | 53.40588 | -1.63883 | 7628 ft | 290 kts | 15° |
| 2026-01-18 13:19 | 53.44477 | -1.62222 | 7122 ft | 286 kts | 15° |
| 2026-01-18 13:20 | 53.48334 | -1.60572 | 6498 ft | 286 kts | 15° |
| 2026-01-18 13:21 | 53.54056 | -1.58122 | 5628 ft | 281 kts | 15° |
| 2026-01-18 13:21 | 53.57844 | -1.56494 | 5028 ft | 280 kts | 16° |
| 2026-01-18 13:21 | 53.59713 | -1.55692 | 4869 ft | 273 kts | 16° |
| 2026-01-18 13:22 | 53.65009 | -1.53412 | 4492 ft | 250 kts | 16° |
| 2026-01-18 13:22 | 53.66584 | -1.52362 | 4364 ft | 238 kts | 42° |
| 2026-01-18 13:23 | 53.68810 | -1.48512 | 4051 ft | 225 kts | 50° |
| 2026-01-18 13:24 | 53.71001 | -1.45094 | 3868 ft | 207 kts | 23° |
| 2026-01-18 13:24 | 53.74581 | -1.47663 | 3789 ft | 194 kts | 319° |
| 2026-01-18 13:25 | 53.76609 | -1.50651 | 3262 ft | 189 kts | 315° |
| 2026-01-18 13:25 | 53.78447 | -1.53495 | 2767 ft | 173 kts | 316° |
| 2026-01-18 13:26 | 53.80171 | -1.56158 | 2345 ft | 158 kts | 317° |
| 2026-01-18 13:26 | 53.81701 | -1.58520 | 1898 ft | 140 kts | 319° |
| 2026-01-18 13:27 | 53.82411 | -1.59621 | 1706 ft | 138 kts | 319° |
| 2026-01-18 13:27 | 53.84552 | -1.62937 | 1135 ft | 138 kts | 319° |
| 2026-01-18 13:28 | 53.85274 | -1.64073 | 1087 ft | 144 kts | 318° |
| 2026-01-18 13:28 | 53.88140 | -1.68115 | 3251 ft | 214 kts | 318° |
| 2026-01-18 13:29 | 53.90577 | -1.71633 | 4426 ft | 240 kts | 317° |
| 2026-01-18 13:29 | 53.93159 | -1.75246 | 5473 ft | 241 kts | 318° |
| 2026-01-18 13:30 | 53.95765 | -1.78831 | 6542 ft | 240 kts | 318° |
| 2026-01-18 13:30 | 53.98414 | -1.82428 | 6985 ft | 246 kts | 318° |
| 2026-01-18 13:31 | 54.01037 | -1.86028 | 7005 ft | 244 kts | 310° |
| 2026-01-18 13:31 | 54.01588 | -1.91010 | 7011 ft | 216 kts | 235° |
| 2026-01-18 13:32 | 54.00529 | -1.92567 | 7016 ft | 206 kts | 195° |
| 2026-01-18 13:32 | 53.96942 | -1.89007 | 7025 ft | 219 kts | 138° |
| 2026-01-18 13:33 | 53.94817 | -1.85332 | 7000 ft | 217 kts | 138° |
| 2026-01-18 13:33 | 53.92710 | -1.81665 | 6992 ft | 216 kts | 138° |
| 2026-01-18 13:34 | 53.90628 | -1.78036 | 6991 ft | 212 kts | 138° |
| 2026-01-18 13:34 | 53.88555 | -1.74425 | 7009 ft | 217 kts | 138° |
| 2026-01-18 13:35 | 53.85364 | -1.68888 | 6796 ft | 223 kts | 138° |
| 2026-01-18 13:36 | 53.82957 | -1.65969 | 6152 ft | 210 kts | 176° |
| 2026-01-18 13:36 | 53.78813 | -1.65691 | 5348 ft | 193 kts | 153° |
| 2026-01-18 13:37 | 53.76883 | -1.62719 | 4857 ft | 184 kts | 144° |
| 2026-01-18 13:37 | 53.75858 | -1.61457 | 4583 ft | 181 kts | 148° |
| 2026-01-18 13:38 | 53.73730 | -1.59286 | 4092 ft | 175 kts | 152° |
| 2026-01-18 13:38 | 53.71959 | -1.57683 | 4001 ft | 172 kts | 154° |
| 2026-01-18 13:39 | 53.68811 | -1.54955 | 3873 ft | 204 kts | 152° |
| 2026-01-18 13:39 | 53.67631 | -1.50843 | 3930 ft | 216 kts | 71° |
| 2026-01-18 13:39 | 53.68469 | -1.48796 | 3941 ft | 213 kts | 44° |
| 2026-01-18 13:40 | 53.72141 | -1.45168 | 3450 ft | 210 kts | 340° |
| 2026-01-18 13:41 | 53.74557 | -1.47690 | 3026 ft | 196 kts | 323° |
| 2026-01-18 13:41 | 53.75573 | -1.49080 | 2932 ft | 180 kts | 318° |
| 2026-01-18 13:42 | 53.78107 | -1.52969 | 2739 ft | 158 kts | 317° |
| 2026-01-18 13:42 | 53.79716 | -1.55456 | 2337 ft | 151 kts | 317° |
| 2026-01-18 13:43 | 53.81203 | -1.57752 | 2009 ft | 141 kts | 316° |
| 2026-01-18 13:43 | 53.82636 | -1.59991 | 1600 ft | 138 kts | 319° |
| 2026-01-18 13:44 | 53.84781 | -1.63271 | 1045 ft | 138 kts | 317° |
| 2026-01-18 13:44 | 53.85492 | -1.64370 | 840 ft | 139 kts | 317° |
| 2026-01-18 13:45 | 53.86747 | -1.66295 | 667 ft | 60 kts | 317° |
| 2026-01-18 13:45 | 53.87011 | -1.66700 | 674 ft | 46 kts | 318° |
| 2026-01-18 13:46 | 53.87342 | -1.66990 | 688 ft | 11 kts | 358° |
| 2026-01-18 13:46 | 53.87379 | -1.67146 | 688 ft | 10 kts | 231° |
| 2026-01-18 13:47 | 53.87272 | -1.67107 | 687 ft | 14 kts | 137° |
| 2026-01-18 13:47 | 53.87192 | -1.66982 | 686 ft | 19 kts | 137° |
| 2026-01-18 13:47 | 53.86962 | -1.66623 | 671 ft | 9 kts | 125° |
| 2026-01-18 13:48 | 53.86955 | -1.66319 | 668 ft | 14 kts | 120° |
| 2026-01-18 13:48 | 53.86885 | -1.66196 | 665 ft | 14 kts | 138° |
| 2026-01-18 13:49 | 53.86812 | -1.65830 | 664 ft | 11 kts | 91° |
| 2026-01-18 13:50 | 53.86815 | -1.65583 | 663 ft | 11 kts | 91° |
| 2026-01-18 13:50 | 53.86813 | -1.65452 | 662 ft | 12 kts | 89° |
| 2026-01-18 13:50 | 53.86836 | -1.65280 | 662 ft | 4 kts | 18° |
| 2026-01-18 13:51 | 53.86873 | -1.65279 | 664 ft | 1 kts | 1° |